sensor_id;sensor_type;location;lat;lon;timestamp;P1;durP1;ratioP1;P2;durP2;ratioP2
14080;SDS011;7116;52.152;5.392;2023-05-07T00:01:03;6.70;;;4.87;;
14080;SDS011;7116;52.152;5.392;2023-05-07T00:03:30;7.97;;;5.10;;
14080;SDS011;7116;52.152;5.392;2023-05-07T00:05:56;6.17;;;5.20;;
14080;SDS011;7116;52.152;5.392;2023-05-07T00:08:21;7.03;;;5.00;;
14080;SDS011;7116;52.152;5.392;2023-05-07T00:10:46;7.30;;;4.97;;
14080;SDS011;7116;52.152;5.392;2023-05-07T00:13:12;8.00;;;4.73;;
14080;SDS011;7116;52.152;5.392;2023-05-07T00:15:37;7.43;;;5.28;;
14080;SDS011;7116;52.152;5.392;2023-05-07T00:18:02;7.90;;;5.53;;
14080;SDS011;7116;52.152;5.392;2023-05-07T00:20:28;6.53;;;4.63;;
14080;SDS011;7116;52.152;5.392;2023-05-07T00:22:53;7.10;;;4.80;;
14080;SDS011;7116;52.152;5.392;2023-05-07T00:25:18;6.53;;;4.77;;
14080;SDS011;7116;52.152;5.392;2023-05-07T00:27:44;7.88;;;5.20;;
14080;SDS011;7116;52.152;5.392;2023-05-07T00:30:10;6.47;;;5.00;;
14080;SDS011;7116;52.152;5.392;2023-05-07T00:32:35;5.13;;;4.40;;
14080;SDS011;7116;52.152;5.392;2023-05-07T00:35:01;7.18;;;5.20;;
14080;SDS011;7116;52.152;5.392;2023-05-07T00:37:26;8.10;;;4.67;;
14080;SDS011;7116;52.152;5.392;2023-05-07T00:39:52;7.10;;;4.43;;
14080;SDS011;7116;52.152;5.392;2023-05-07T00:42:17;6.63;;;4.50;;
14080;SDS011;7116;52.152;5.392;2023-05-07T00:44:43;7.65;;;5.10;;
14080;SDS011;7116;52.152;5.392;2023-05-07T00:47:08;6.43;;;5.00;;
14080;SDS011;7116;52.152;5.392;2023-05-07T00:49:43;6.13;;;4.73;;
14080;SDS011;7116;52.152;5.392;2023-05-07T00:52:09;9.35;;;5.15;;
14080;SDS011;7116;52.152;5.392;2023-05-07T00:54:34;6.60;;;4.83;;
14080;SDS011;7116;52.152;5.392;2023-05-07T00:56:59;8.33;;;4.80;;
14080;SDS011;7116;52.152;5.392;2023-05-07T00:59:25;8.87;;;5.63;;
14080;SDS011;7116;52.152;5.392;2023-05-07T01:01:50;5.17;;;4.57;;
14080;SDS011;7116;52.152;5.392;2023-05-07T01:04:17;7.20;;;5.10;;
14080;SDS011;7116;52.152;5.392;2023-05-07T01:06:42;6.40;;;4.37;;
14080;SDS011;7116;52.152;5.392;2023-05-07T01:09:07;6.73;;;4.77;;
14080;SDS011;7116;52.152;5.392;2023-05-07T01:11:34;5.75;;;4.78;;
14080;SDS011;7116;52.152;5.392;2023-05-07T01:13:59;5.80;;;4.80;;
14080;SDS011;7116;52.152;5.392;2023-05-07T01:16:24;5.80;;;4.87;;
14080;SDS011;7116;52.152;5.392;2023-05-07T01:18:50;8.73;;;4.97;;
14080;SDS011;7116;52.152;5.392;2023-05-07T01:21:15;7.87;;;4.47;;
14080;SDS011;7116;52.152;5.392;2023-05-07T01:23:41;7.05;;;5.38;;
14080;SDS011;7116;52.152;5.392;2023-05-07T01:26:07;6.33;;;5.30;;
14080;SDS011;7116;52.152;5.392;2023-05-07T01:28:32;7.40;;;4.80;;
14080;SDS011;7116;52.152;5.392;2023-05-07T01:31:01;7.73;;;5.23;;
14080;SDS011;7116;52.152;5.392;2023-05-07T01:33:26;9.00;;;5.72;;
14080;SDS011;7116;52.152;5.392;2023-05-07T01:35:53;9.15;;;4.97;;
14080;SDS011;7116;52.152;5.392;2023-05-07T01:38:20;6.60;;;4.63;;
14080;SDS011;7116;52.152;5.392;2023-05-07T01:40:46;5.60;;;4.70;;
14080;SDS011;7116;52.152;5.392;2023-05-07T01:43:11;8.13;;;5.57;;
14080;SDS011;7116;52.152;5.392;2023-05-07T01:45:37;8.97;;;4.90;;
14080;SDS011;7116;52.152;5.392;2023-05-07T01:48:03;7.30;;;4.53;;
14080;SDS011;7116;52.152;5.392;2023-05-07T01:50:28;8.17;;;4.60;;
14080;SDS011;7116;52.152;5.392;2023-05-07T01:52:54;6.90;;;4.80;;
14080;SDS011;7116;52.152;5.392;2023-05-07T01:55:20;7.97;;;5.37;;
14080;SDS011;7116;52.152;5.392;2023-05-07T01:57:47;6.00;;;5.07;;
14080;SDS011;7116;52.152;5.392;2023-05-07T02:00:12;7.30;;;5.68;;
14080;SDS011;7116;52.152;5.392;2023-05-07T02:02:38;7.00;;;4.97;;
14080;SDS011;7116;52.152;5.392;2023-05-07T02:05:03;6.47;;;4.77;;
14080;SDS011;7116;52.152;5.392;2023-05-07T02:07:28;6.30;;;4.40;;
14080;SDS011;7116;52.152;5.392;2023-05-07T02:09:54;8.02;;;5.22;;
14080;SDS011;7116;52.152;5.392;2023-05-07T02:12:20;7.43;;;4.90;;
14080;SDS011;7116;52.152;5.392;2023-05-07T02:14:45;6.85;;;5.18;;
14080;SDS011;7116;52.152;5.392;2023-05-07T02:17:11;8.07;;;5.20;;
14080;SDS011;7116;52.152;5.392;2023-05-07T02:19:36;6.63;;;5.87;;
14080;SDS011;7116;52.152;5.392;2023-05-07T02:22:01;9.33;;;5.17;;
14080;SDS011;7116;52.152;5.392;2023-05-07T02:24:26;6.80;;;5.73;;
14080;SDS011;7116;52.152;5.392;2023-05-07T02:26:51;7.97;;;5.13;;
14080;SDS011;7116;52.152;5.392;2023-05-07T02:29:17;7.30;;;6.13;;
14080;SDS011;7116;52.152;5.392;2023-05-07T02:31:42;8.90;;;5.20;;
14080;SDS011;7116;52.152;5.392;2023-05-07T02:34:07;9.27;;;6.03;;
14080;SDS011;7116;52.152;5.392;2023-05-07T02:36:32;7.53;;;5.53;;
14080;SDS011;7116;52.152;5.392;2023-05-07T02:38:57;9.40;;;6.00;;
14080;SDS011;7116;52.152;5.392;2023-05-07T02:41:22;6.23;;;4.70;;
14080;SDS011;7116;52.152;5.392;2023-05-07T02:43:48;7.33;;;5.43;;
14080;SDS011;7116;52.152;5.392;2023-05-07T02:46:13;6.83;;;5.27;;
14080;SDS011;7116;52.152;5.392;2023-05-07T02:48:38;9.20;;;5.10;;
14080;SDS011;7116;52.152;5.392;2023-05-07T02:51:03;7.07;;;5.80;;
14080;SDS011;7116;52.152;5.392;2023-05-07T02:53:29;6.80;;;5.77;;
14080;SDS011;7116;52.152;5.392;2023-05-07T02:55:58;10.03;;;5.17;;
14080;SDS011;7116;52.152;5.392;2023-05-07T02:58:24;6.80;;;5.10;;
14080;SDS011;7116;52.152;5.392;2023-05-07T03:00:49;7.97;;;5.83;;
14080;SDS011;7116;52.152;5.392;2023-05-07T03:03:15;10.18;;;5.95;;
14080;SDS011;7116;52.152;5.392;2023-05-07T03:05:40;8.40;;;6.10;;
14080;SDS011;7116;52.152;5.392;2023-05-07T03:08:05;10.03;;;6.13;;
14080;SDS011;7116;52.152;5.392;2023-05-07T03:10:31;7.50;;;5.90;;
14080;SDS011;7116;52.152;5.392;2023-05-07T03:12:56;8.10;;;6.07;;
14080;SDS011;7116;52.152;5.392;2023-05-07T03:15:21;9.13;;;6.57;;
14080;SDS011;7116;52.152;5.392;2023-05-07T03:17:47;7.63;;;6.07;;
14080;SDS011;7116;52.152;5.392;2023-05-07T03:20:12;8.57;;;5.88;;
14080;SDS011;7116;52.152;5.392;2023-05-07T03:22:38;9.77;;;5.70;;
14080;SDS011;7116;52.152;5.392;2023-05-07T03:25:03;8.20;;;6.00;;
14080;SDS011;7116;52.152;5.392;2023-05-07T03:27:29;8.05;;;6.00;;
14080;SDS011;7116;52.152;5.392;2023-05-07T03:29:54;8.10;;;5.43;;
14080;SDS011;7116;52.152;5.392;2023-05-07T03:32:19;8.27;;;5.90;;
14080;SDS011;7116;52.152;5.392;2023-05-07T03:34:47;8.00;;;5.13;;
14080;SDS011;7116;52.152;5.392;2023-05-07T03:37:12;6.45;;;5.68;;
14080;SDS011;7116;52.152;5.392;2023-05-07T03:39:37;7.90;;;5.90;;
14080;SDS011;7116;52.152;5.392;2023-05-07T03:42:03;6.70;;;5.20;;
14080;SDS011;7116;52.152;5.392;2023-05-07T03:44:28;7.37;;;6.03;;
14080;SDS011;7116;52.152;5.392;2023-05-07T03:46:53;8.30;;;5.87;;
14080;SDS011;7116;52.152;5.392;2023-05-07T03:49:18;9.00;;;5.93;;
14080;SDS011;7116;52.152;5.392;2023-05-07T03:51:44;9.60;;;5.73;;
14080;SDS011;7116;52.152;5.392;2023-05-07T03:54:09;8.13;;;5.80;;
14080;SDS011;7116;52.152;5.392;2023-05-07T03:56:34;9.67;;;6.20;;
14080;SDS011;7116;52.152;5.392;2023-05-07T03:59:00;6.83;;;5.57;;
14080;SDS011;7116;52.152;5.392;2023-05-07T04:01:25;10.20;;;6.30;;
14080;SDS011;7116;52.152;5.392;2023-05-07T04:03:50;10.13;;;6.27;;
14080;SDS011;7116;52.152;5.392;2023-05-07T04:06:16;8.07;;;5.83;;
14080;SDS011;7116;52.152;5.392;2023-05-07T04:08:42;9.77;;;6.30;;
14080;SDS011;7116;52.152;5.392;2023-05-07T04:11:08;16.93;;;7.03;;
14080;SDS011;7116;52.152;5.392;2023-05-07T04:13:33;10.20;;;5.97;;
14080;SDS011;7116;52.152;5.392;2023-05-07T04:16:00;10.40;;;6.23;;
14080;SDS011;7116;52.152;5.392;2023-05-07T04:18:25;9.45;;;6.55;;
14080;SDS011;7116;52.152;5.392;2023-05-07T04:20:51;11.87;;;6.83;;
14080;SDS011;7116;52.152;5.392;2023-05-07T04:23:18;7.77;;;5.80;;
14080;SDS011;7116;52.152;5.392;2023-05-07T04:25:43;9.53;;;6.97;;
14080;SDS011;7116;52.152;5.392;2023-05-07T04:28:09;8.67;;;6.90;;
14080;SDS011;7116;52.152;5.392;2023-05-07T04:30:34;8.70;;;6.60;;
14080;SDS011;7116;52.152;5.392;2023-05-07T04:32:59;10.35;;;7.32;;
14080;SDS011;7116;52.152;5.392;2023-05-07T04:35:25;8.37;;;6.27;;
14080;SDS011;7116;52.152;5.392;2023-05-07T04:37:50;9.70;;;6.67;;
14080;SDS011;7116;52.152;5.392;2023-05-07T04:40:15;10.07;;;6.67;;
14080;SDS011;7116;52.152;5.392;2023-05-07T04:42:41;8.93;;;6.57;;
14080;SDS011;7116;52.152;5.392;2023-05-07T04:45:06;10.47;;;7.47;;
14080;SDS011;7116;52.152;5.392;2023-05-07T04:47:31;8.73;;;6.97;;
14080;SDS011;7116;52.152;5.392;2023-05-07T04:49:57;19.60;;;6.83;;
14080;SDS011;7116;52.152;5.392;2023-05-07T04:52:22;8.65;;;6.63;;
14080;SDS011;7116;52.152;5.392;2023-05-07T04:54:48;9.03;;;6.60;;
14080;SDS011;7116;52.152;5.392;2023-05-07T04:57:13;8.80;;;6.63;;
14080;SDS011;7116;52.152;5.392;2023-05-07T04:59:38;8.80;;;7.17;;
14080;SDS011;7116;52.152;5.392;2023-05-07T05:02:03;9.67;;;7.13;;
14080;SDS011;7116;52.152;5.392;2023-05-07T05:04:29;12.83;;;7.63;;
14080;SDS011;7116;52.152;5.392;2023-05-07T05:06:54;8.48;;;7.25;;
14080;SDS011;7116;52.152;5.392;2023-05-07T05:09:19;10.60;;;7.73;;
14080;SDS011;7116;52.152;5.392;2023-05-07T05:11:45;11.03;;;7.53;;
14080;SDS011;7116;52.152;5.392;2023-05-07T05:14:10;11.77;;;7.20;;
14080;SDS011;7116;52.152;5.392;2023-05-07T05:16:35;9.03;;;6.70;;
14080;SDS011;7116;52.152;5.392;2023-05-07T05:19:01;8.37;;;6.87;;
14080;SDS011;7116;52.152;5.392;2023-05-07T05:21:26;11.13;;;7.60;;
14080;SDS011;7116;52.152;5.392;2023-05-07T05:23:51;10.13;;;7.20;;
14080;SDS011;7116;52.152;5.392;2023-05-07T05:26:17;11.10;;;6.30;;
14080;SDS011;7116;52.152;5.392;2023-05-07T05:28:42;12.80;;;7.60;;
14080;SDS011;7116;52.152;5.392;2023-05-07T05:31:07;12.70;;;7.95;;
14080;SDS011;7116;52.152;5.392;2023-05-07T05:33:33;10.93;;;7.50;;
14080;SDS011;7116;52.152;5.392;2023-05-07T05:35:58;9.57;;;6.83;;
14080;SDS011;7116;52.152;5.392;2023-05-07T05:38:23;9.77;;;7.83;;
14080;SDS011;7116;52.152;5.392;2023-05-07T05:40:48;10.83;;;7.57;;
14080;SDS011;7116;52.152;5.392;2023-05-07T05:43:13;10.83;;;7.17;;
14080;SDS011;7116;52.152;5.392;2023-05-07T05:45:39;8.77;;;7.80;;
14080;SDS011;7116;52.152;5.392;2023-05-07T05:48:04;11.17;;;8.53;;
14080;SDS011;7116;52.152;5.392;2023-05-07T05:50:32;12.40;;;8.13;;
14080;SDS011;7116;52.152;5.392;2023-05-07T05:52:57;13.40;;;7.83;;
14080;SDS011;7116;52.152;5.392;2023-05-07T05:55:22;11.10;;;7.80;;
14080;SDS011;7116;52.152;5.392;2023-05-07T05:57:48;12.90;;;7.10;;
14080;SDS011;7116;52.152;5.392;2023-05-07T06:00:13;12.20;;;8.30;;
14080;SDS011;7116;52.152;5.392;2023-05-07T06:02:38;10.47;;;8.33;;
14080;SDS011;7116;52.152;5.392;2023-05-07T06:05:03;10.13;;;7.40;;
14080;SDS011;7116;52.152;5.392;2023-05-07T06:07:29;10.60;;;8.43;;
14080;SDS011;7116;52.152;5.392;2023-05-07T06:09:54;11.37;;;8.37;;
14080;SDS011;7116;52.152;5.392;2023-05-07T06:12:20;10.47;;;7.77;;
14080;SDS011;7116;52.152;5.392;2023-05-07T06:14:45;10.73;;;8.30;;
14080;SDS011;7116;52.152;5.392;2023-05-07T06:17:11;9.87;;;8.37;;
14080;SDS011;7116;52.152;5.392;2023-05-07T06:19:36;9.70;;;7.97;;
14080;SDS011;7116;52.152;5.392;2023-05-07T06:22:01;11.10;;;8.23;;
14080;SDS011;7116;52.152;5.392;2023-05-07T06:24:27;10.35;;;8.40;;
14080;SDS011;7116;52.152;5.392;2023-05-07T06:26:52;13.63;;;8.70;;
14080;SDS011;7116;52.152;5.392;2023-05-07T06:29:18;11.87;;;8.70;;
14080;SDS011;7116;52.152;5.392;2023-05-07T06:31:43;10.63;;;8.17;;
14080;SDS011;7116;52.152;5.392;2023-05-07T06:34:09;10.60;;;8.70;;
14080;SDS011;7116;52.152;5.392;2023-05-07T06:36:35;10.95;;;7.68;;
14080;SDS011;7116;52.152;5.392;2023-05-07T06:39:00;9.17;;;7.40;;
14080;SDS011;7116;52.152;5.392;2023-05-07T06:41:30;12.07;;;7.43;;
14080;SDS011;7116;52.152;5.392;2023-05-07T06:43:55;16.35;;;9.73;;
14080;SDS011;7116;52.152;5.392;2023-05-07T06:46:22;12.97;;;9.60;;
14080;SDS011;7116;52.152;5.392;2023-05-07T06:48:47;12.88;;;8.73;;
14080;SDS011;7116;52.152;5.392;2023-05-07T06:51:12;11.50;;;9.40;;
14080;SDS011;7116;52.152;5.392;2023-05-07T06:53:37;13.63;;;8.80;;
14080;SDS011;7116;52.152;5.392;2023-05-07T06:56:03;11.73;;;8.97;;
14080;SDS011;7116;52.152;5.392;2023-05-07T06:58:28;12.60;;;8.70;;
14080;SDS011;7116;52.152;5.392;2023-05-07T07:00:53;13.70;;;8.73;;
14080;SDS011;7116;52.152;5.392;2023-05-07T07:03:18;11.17;;;9.50;;
14080;SDS011;7116;52.152;5.392;2023-05-07T07:05:48;11.23;;;9.17;;
14080;SDS011;7116;52.152;5.392;2023-05-07T07:17:45;15.07;;;9.02;;
14080;SDS011;7116;52.152;5.392;2023-05-07T07:20:24;11.20;;;9.20;;
14080;SDS011;7116;52.152;5.392;2023-05-07T07:26:17;12.57;;;7.80;;
14080;SDS011;7116;52.152;5.392;2023-05-07T07:29:05;10.18;;;8.60;;
14080;SDS011;7116;52.152;5.392;2023-05-07T07:32:08;12.45;;;8.63;;
14080;SDS011;7116;52.152;5.392;2023-05-07T07:37:55;11.82;;;8.85;;
14080;SDS011;7116;52.152;5.392;2023-05-07T07:40:48;15.30;;;9.57;;
14080;SDS011;7116;52.152;5.392;2023-05-07T07:43:16;10.73;;;9.15;;
14080;SDS011;7116;52.152;5.392;2023-05-07T07:45:44;10.93;;;8.60;;
14080;SDS011;7116;52.152;5.392;2023-05-07T07:48:40;11.07;;;8.73;;
14080;SDS011;7116;52.152;5.392;2023-05-07T07:51:42;10.77;;;8.68;;
14080;SDS011;7116;52.152;5.392;2023-05-07T07:54:27;11.30;;;9.43;;
14080;SDS011;7116;52.152;5.392;2023-05-07T08:06:19;10.57;;;8.48;;
14080;SDS011;7116;52.152;5.392;2023-05-07T08:09:02;10.13;;;7.90;;
14080;SDS011;7116;52.152;5.392;2023-05-07T08:11:47;13.95;;;9.85;;
14080;SDS011;7116;52.152;5.392;2023-05-07T08:14:13;11.30;;;9.43;;
14080;SDS011;7116;52.152;5.392;2023-05-07T08:16:38;9.65;;;6.97;;
14080;SDS011;7116;52.152;5.392;2023-05-07T08:19:04;9.83;;;8.30;;
14080;SDS011;7116;52.152;5.392;2023-05-07T08:21:29;9.67;;;7.83;;
14080;SDS011;7116;52.152;5.392;2023-05-07T08:23:55;12.43;;;9.65;;
14080;SDS011;7116;52.152;5.392;2023-05-07T08:26:21;12.30;;;10.37;;
14080;SDS011;7116;52.152;5.392;2023-05-07T08:28:46;12.17;;;9.43;;
14080;SDS011;7116;52.152;5.392;2023-05-07T08:31:11;16.97;;;9.47;;
14080;SDS011;7116;52.152;5.392;2023-05-07T08:33:36;11.70;;;9.30;;
14080;SDS011;7116;52.152;5.392;2023-05-07T08:36:03;11.07;;;9.82;;
14080;SDS011;7116;52.152;5.392;2023-05-07T08:38:28;14.40;;;9.87;;
14080;SDS011;7116;52.152;5.392;2023-05-07T08:40:53;12.13;;;9.23;;
14080;SDS011;7116;52.152;5.392;2023-05-07T08:43:18;12.17;;;8.80;;
14080;SDS011;7116;52.152;5.392;2023-05-07T08:45:44;12.40;;;10.30;;
14080;SDS011;7116;52.152;5.392;2023-05-07T08:48:17;11.52;;;7.90;;
14080;SDS011;7116;52.152;5.392;2023-05-07T08:50:42;15.45;;;9.13;;
14080;SDS011;7116;52.152;5.392;2023-05-07T08:53:07;13.13;;;8.00;;
14080;SDS011;7116;52.152;5.392;2023-05-07T08:55:32;13.13;;;11.63;;
14080;SDS011;7116;52.152;5.392;2023-05-07T08:57:58;13.17;;;10.20;;
14080;SDS011;7116;52.152;5.392;2023-05-07T09:00:23;13.80;;;9.90;;
14080;SDS011;7116;52.152;5.392;2023-05-07T09:02:48;16.83;;;11.13;;
14080;SDS011;7116;52.152;5.392;2023-05-07T09:05:14;12.50;;;11.20;;
14080;SDS011;7116;52.152;5.392;2023-05-07T09:07:39;14.83;;;12.27;;
14080;SDS011;7116;52.152;5.392;2023-05-07T09:10:04;14.27;;;11.17;;
14080;SDS011;7116;52.152;5.392;2023-05-07T09:12:30;14.57;;;11.38;;
14080;SDS011;7116;52.152;5.392;2023-05-07T09:14:55;13.70;;;10.57;;
14080;SDS011;7116;52.152;5.392;2023-05-07T09:17:21;13.50;;;10.87;;
14080;SDS011;7116;52.152;5.392;2023-05-07T09:19:48;14.10;;;11.13;;
14080;SDS011;7116;52.152;5.392;2023-05-07T09:22:16;15.98;;;11.32;;
14080;SDS011;7116;52.152;5.392;2023-05-07T09:24:45;12.77;;;9.95;;
14080;SDS011;7116;52.152;5.392;2023-05-07T09:27:12;12.50;;;9.35;;
14080;SDS011;7116;52.152;5.392;2023-05-07T09:29:38;14.02;;;9.80;;
14080;SDS011;7116;52.152;5.392;2023-05-07T09:32:04;14.67;;;10.77;;
14080;SDS011;7116;52.152;5.392;2023-05-07T09:34:30;13.87;;;10.87;;
14080;SDS011;7116;52.152;5.392;2023-05-07T09:36:55;13.57;;;10.48;;
14080;SDS011;7116;52.152;5.392;2023-05-07T09:39:21;11.77;;;9.83;;
14080;SDS011;7116;52.152;5.392;2023-05-07T09:41:47;11.33;;;8.83;;
14080;SDS011;7116;52.152;5.392;2023-05-07T09:44:16;13.23;;;9.73;;
14080;SDS011;7116;52.152;5.392;2023-05-07T09:46:44;14.07;;;9.07;;
14080;SDS011;7116;52.152;5.392;2023-05-07T09:49:12;13.13;;;9.23;;
14080;SDS011;7116;52.152;5.392;2023-05-07T09:51:46;14.55;;;10.35;;
14080;SDS011;7116;52.152;5.392;2023-05-07T09:54:15;14.45;;;10.48;;
14080;SDS011;7116;52.152;5.392;2023-05-07T09:56:41;11.07;;;9.05;;
14080;SDS011;7116;52.152;5.392;2023-05-07T09:59:07;13.07;;;9.30;;
14080;SDS011;7116;52.152;5.392;2023-05-07T10:01:33;12.27;;;9.38;;
14080;SDS011;7116;52.152;5.392;2023-05-07T10:04:10;12.33;;;9.00;;
14080;SDS011;7116;52.152;5.392;2023-05-07T10:06:38;10.65;;;9.07;;
14080;SDS011;7116;52.152;5.392;2023-05-07T10:09:11;9.77;;;7.20;;
14080;SDS011;7116;52.152;5.392;2023-05-07T10:11:59;10.20;;;7.28;;
14080;SDS011;7116;52.152;5.392;2023-05-07T10:14:38;14.15;;;9.30;;
14080;SDS011;7116;52.152;5.392;2023-05-07T10:17:21;11.67;;;7.97;;
14080;SDS011;7116;52.152;5.392;2023-05-07T10:20:11;11.45;;;8.25;;
14080;SDS011;7116;52.152;5.392;2023-05-07T10:25:33;10.55;;;8.38;;
14080;SDS011;7116;52.152;5.392;2023-05-07T10:28:15;12.15;;;8.50;;
14080;SDS011;7116;52.152;5.392;2023-05-07T10:33:47;12.20;;;8.77;;
14080;SDS011;7116;52.152;5.392;2023-05-07T10:36:29;13.02;;;8.70;;
14080;SDS011;7116;52.152;5.392;2023-05-07T10:39:28;14.05;;;8.98;;
14080;SDS011;7116;52.152;5.392;2023-05-07T10:42:14;10.60;;;8.57;;
14080;SDS011;7116;52.152;5.392;2023-05-07T10:44:53;12.83;;;8.73;;
14080;SDS011;7116;52.152;5.392;2023-05-07T10:47:22;13.68;;;9.05;;
14080;SDS011;7116;52.152;5.392;2023-05-07T10:56:39;11.52;;;7.47;;
14080;SDS011;7116;52.152;5.392;2023-05-07T10:58:41;13.67;;;9.43;;
14080;SDS011;7116;52.152;5.392;2023-05-07T11:01:14;11.33;;;8.73;;
14080;SDS011;7116;52.152;5.392;2023-05-07T11:04:24;10.35;;;7.85;;
14080;SDS011;7116;52.152;5.392;2023-05-07T11:15:14;16.60;;;8.67;;
14080;SDS011;7116;52.152;5.392;2023-05-07T11:23:39;10.25;;;7.90;;
14080;SDS011;7116;52.152;5.392;2023-05-07T11:25:59;12.07;;;8.18;;
14080;SDS011;7116;52.152;5.392;2023-05-07T11:28:24;12.50;;;8.83;;
14080;SDS011;7116;52.152;5.392;2023-05-07T11:30:50;12.68;;;8.80;;
14080;SDS011;7116;52.152;5.392;2023-05-07T11:33:19;12.55;;;8.98;;
14080;SDS011;7116;52.152;5.392;2023-05-07T11:35:47;11.57;;;9.10;;
14080;SDS011;7116;52.152;5.392;2023-05-07T11:38:25;15.67;;;10.13;;
14080;SDS011;7116;52.152;5.392;2023-05-07T11:43:54;11.68;;;9.00;;
14080;SDS011;7116;52.152;5.392;2023-05-07T11:55:11;13.00;;;8.98;;
14080;SDS011;7116;52.152;5.392;2023-05-07T11:57:38;13.23;;;9.10;;
14080;SDS011;7116;52.152;5.392;2023-05-07T12:02:52;16.48;;;8.07;;
14080;SDS011;7116;52.152;5.392;2023-05-07T12:05:40;12.43;;;9.60;;
14080;SDS011;7116;52.152;5.392;2023-05-07T12:08:25;11.37;;;9.27;;
14080;SDS011;7116;52.152;5.392;2023-05-07T12:14:00;11.18;;;9.02;;
14080;SDS011;7116;52.152;5.392;2023-05-07T12:16:25;11.70;;;9.13;;
14080;SDS011;7116;52.152;5.392;2023-05-07T12:19:02;12.60;;;8.90;;
14080;SDS011;7116;52.152;5.392;2023-05-07T12:21:33;12.52;;;8.85;;
14080;SDS011;7116;52.152;5.392;2023-05-07T12:24:14;11.50;;;8.23;;
14080;SDS011;7116;52.152;5.392;2023-05-07T12:33:08;15.63;;;8.65;;
14080;SDS011;7116;52.152;5.392;2023-05-07T12:35:49;11.20;;;8.02;;
14080;SDS011;7116;52.152;5.392;2023-05-07T12:38:35;15.38;;;9.55;;
14080;SDS011;7116;52.152;5.392;2023-05-07T12:41:20;12.07;;;8.67;;
14080;SDS011;7116;52.152;5.392;2023-05-07T12:46:44;12.05;;;8.88;;
14080;SDS011;7116;52.152;5.392;2023-05-07T12:49:26;10.90;;;8.20;;
14080;SDS011;7116;52.152;5.392;2023-05-07T12:51:54;12.80;;;8.43;;
14080;SDS011;7116;52.152;5.392;2023-05-07T12:54:30;12.17;;;9.17;;
14080;SDS011;7116;52.152;5.392;2023-05-07T12:59:31;12.48;;;8.82;;
14080;SDS011;7116;52.152;5.392;2023-05-07T13:02:04;11.73;;;7.65;;
14080;SDS011;7116;52.152;5.392;2023-05-07T13:04:29;9.57;;;7.67;;
14080;SDS011;7116;52.152;5.392;2023-05-07T13:07:24;11.90;;;8.50;;
14080;SDS011;7116;52.152;5.392;2023-05-07T13:13:05;9.30;;;6.68;;
14080;SDS011;7116;52.152;5.392;2023-05-07T13:15:54;9.97;;;6.57;;
14080;SDS011;7116;52.152;5.392;2023-05-07T13:21:17;7.45;;;4.78;;
14080;SDS011;7116;52.152;5.392;2023-05-07T13:24:11;8.00;;;5.93;;
14080;SDS011;7116;52.152;5.392;2023-05-07T13:26:56;8.20;;;5.80;;
14080;SDS011;7116;52.152;5.392;2023-05-07T13:29:42;7.70;;;5.70;;
14080;SDS011;7116;52.152;5.392;2023-05-07T13:32:19;11.75;;;7.30;;
14080;SDS011;7116;52.152;5.392;2023-05-07T13:34:44;10.77;;;7.07;;
14080;SDS011;7116;52.152;5.392;2023-05-07T13:37:09;11.17;;;7.40;;
14080;SDS011;7116;52.152;5.392;2023-05-07T13:39:43;10.52;;;7.88;;
14080;SDS011;7116;52.152;5.392;2023-05-07T13:42:09;12.15;;;7.28;;
14080;SDS011;7116;52.152;5.392;2023-05-07T13:44:42;9.77;;;7.37;;
14080;SDS011;7116;52.152;5.392;2023-05-07T13:47:30;13.18;;;7.88;;
14080;SDS011;7116;52.152;5.392;2023-05-07T13:53:09;10.88;;;7.55;;
14080;SDS011;7116;52.152;5.392;2023-05-07T13:55:44;10.05;;;7.32;;
14080;SDS011;7116;52.152;5.392;2023-05-07T13:58:10;9.80;;;7.13;;
14080;SDS011;7116;52.152;5.392;2023-05-07T14:03:58;11.05;;;8.25;;
14080;SDS011;7116;52.152;5.392;2023-05-07T14:06:44;12.37;;;9.63;;
14080;SDS011;7116;52.152;5.392;2023-05-07T14:09:22;13.13;;;9.40;;
14080;SDS011;7116;52.152;5.392;2023-05-07T14:12:05;12.23;;;9.38;;
14080;SDS011;7116;52.152;5.392;2023-05-07T14:14:33;9.48;;;7.65;;
14080;SDS011;7116;52.152;5.392;2023-05-07T14:17:06;19.33;;;9.52;;
14080;SDS011;7116;52.152;5.392;2023-05-07T14:19:33;15.63;;;9.10;;
14080;SDS011;7116;52.152;5.392;2023-05-07T14:22:01;10.60;;;7.80;;
14080;SDS011;7116;52.152;5.392;2023-05-07T14:24:51;10.10;;;8.27;;
14080;SDS011;7116;52.152;5.392;2023-05-07T14:27:26;11.25;;;8.20;;
14080;SDS011;7116;52.152;5.392;2023-05-07T14:29:54;11.33;;;7.80;;
14080;SDS011;7116;52.152;5.392;2023-05-07T14:38:23;13.43;;;8.50;;
14080;SDS011;7116;52.152;5.392;2023-05-07T14:41:06;11.17;;;8.33;;
14080;SDS011;7116;52.152;5.392;2023-05-07T14:43:56;11.57;;;9.40;;
14080;SDS011;7116;52.152;5.392;2023-05-07T14:46:42;13.55;;;8.70;;
14080;SDS011;7116;52.152;5.392;2023-05-07T14:52:06;13.90;;;9.27;;
14080;SDS011;7116;52.152;5.392;2023-05-07T14:54:44;15.17;;;9.57;;
14080;SDS011;7116;52.152;5.392;2023-05-07T15:06:35;9.55;;;8.05;;
14080;SDS011;7116;52.152;5.392;2023-05-07T15:33:44;7.95;;;5.32;;
14080;SDS011;7116;52.152;5.392;2023-05-07T15:57:53;9.50;;;3.15;;
14080;SDS011;7116;52.152;5.392;2023-05-07T17:27:22;6.87;;;4.00;;
14080;SDS011;7116;52.152;5.392;2023-05-07T18:03:58;6.07;;;4.25;;
14080;SDS011;7116;52.152;5.392;2023-05-07T18:13:05;5.23;;;4.03;;
14080;SDS011;7116;52.152;5.392;2023-05-07T18:15:37;5.47;;;3.80;;
14080;SDS011;7116;52.152;5.392;2023-05-07T18:18:29;5.75;;;3.47;;
14080;SDS011;7116;52.152;5.392;2023-05-07T18:21:07;5.93;;;3.70;;
14080;SDS011;7116;52.152;5.392;2023-05-07T18:24:00;4.40;;;3.50;;
14080;SDS011;7116;52.152;5.392;2023-05-07T18:26:54;6.33;;;4.17;;
14080;SDS011;7116;52.152;5.392;2023-05-07T18:29:55;5.07;;;3.85;;
14080;SDS011;7116;52.152;5.392;2023-05-07T18:35:46;7.25;;;4.30;;
14080;SDS011;7116;52.152;5.392;2023-05-07T18:38:49;6.43;;;4.68;;
14080;SDS011;7116;52.152;5.392;2023-05-07T18:44:30;6.28;;;4.55;;
14080;SDS011;7116;52.152;5.392;2023-05-07T18:47:20;8.20;;;4.65;;
14080;SDS011;7116;52.152;5.392;2023-05-07T18:50:06;5.68;;;4.65;;
14080;SDS011;7116;52.152;5.392;2023-05-07T18:52:43;5.43;;;4.30;;
14080;SDS011;7116;52.152;5.392;2023-05-07T18:55:16;6.43;;;4.47;;
14080;SDS011;7116;52.152;5.392;2023-05-07T19:00:48;5.75;;;4.75;;
14080;SDS011;7116;52.152;5.392;2023-05-07T19:03:36;6.20;;;5.18;;
14080;SDS011;7116;52.152;5.392;2023-05-07T19:09:25;6.73;;;5.07;;
14080;SDS011;7116;52.152;5.392;2023-05-07T19:12:20;5.22;;;4.35;;
14080;SDS011;7116;52.152;5.392;2023-05-07T19:18:29;5.43;;;4.30;;
14080;SDS011;7116;52.152;5.392;2023-05-07T19:27:06;7.35;;;5.55;;
14080;SDS011;7116;52.152;5.392;2023-05-07T19:32:32;6.15;;;5.53;;
14080;SDS011;7116;52.152;5.392;2023-05-07T19:41:38;7.45;;;4.75;;
14080;SDS011;7116;52.152;5.392;2023-05-07T19:44:33;6.57;;;5.15;;
14080;SDS011;7116;52.152;5.392;2023-05-07T19:47:18;6.72;;;5.40;;
14080;SDS011;7116;52.152;5.392;2023-05-07T19:50:03;8.07;;;5.30;;
14080;SDS011;7116;52.152;5.392;2023-05-07T19:52:31;6.50;;;5.13;;
14080;SDS011;7116;52.152;5.392;2023-05-07T19:54:56;8.07;;;5.10;;
14080;SDS011;7116;52.152;5.392;2023-05-07T19:57:22;9.77;;;4.37;;
14080;SDS011;7116;52.152;5.392;2023-05-07T19:59:49;6.70;;;5.07;;
14080;SDS011;7116;52.152;5.392;2023-05-07T20:02:14;5.63;;;4.97;;
14080;SDS011;7116;52.152;5.392;2023-05-07T20:04:40;8.23;;;5.38;;
14080;SDS011;7116;52.152;5.392;2023-05-07T20:07:05;6.10;;;4.67;;
14080;SDS011;7116;52.152;5.392;2023-05-07T20:09:31;6.53;;;5.53;;
14080;SDS011;7116;52.152;5.392;2023-05-07T20:11:59;5.70;;;4.60;;
14080;SDS011;7116;52.152;5.392;2023-05-07T20:14:27;11.70;;;5.27;;
14080;SDS011;7116;52.152;5.392;2023-05-07T20:16:53;8.82;;;6.03;;
14080;SDS011;7116;52.152;5.392;2023-05-07T20:19:21;6.67;;;5.27;;
14080;SDS011;7116;52.152;5.392;2023-05-07T20:21:46;8.98;;;5.75;;
14080;SDS011;7116;52.152;5.392;2023-05-07T20:24:34;7.30;;;5.97;;
14080;SDS011;7116;52.152;5.392;2023-05-07T20:36:23;8.25;;;5.32;;